Time;durP1;ratioP1;P1;durP2;ratioP2;P2;SDS_P1;SDS_P2;PMS_P1;PMS_P2;Temp;Humidity;BMP_temperature;BMP_pressure;BME280_temperature;BME280_humidity;BME280_pressure;Samples;Min_cycle;Max_cycle;Signal;HPM_P1;HPM_P2
2022/09/04 00:01:44;;;;;;;8.15;6.13;;;;;;;14.83;97.56;92793.53;5032388;28;20044;-77
2022/09/04 00:04:34;;;;;;;8.43;5.90;;;;;;;14.83;97.56;92795.41;5032581;28;20391;-76
2022/09/04 00:07:44;;;;;;;10.93;5.68;;;;;;;14.83;97.71;92800.69;5030816;28;20038;-77
2022/09/04 00:10:19;;;;;;;8.85;5.80;;;;;;;14.78;98.31;92789.19;5032175;28;20039;-76
2022/09/04 00:12:55;;;;;;;9.32;6.70;;;;;;;14.78;97.76;92788.41;5031219;28;20071;-76
2022/09/04 00:15:42;;;;;;;9.80;6.28;;;;;;;14.76;98.72;92787.94;5031053;28;20495;-76
2022/09/04 00:18:15;;;;;;;8.05;6.07;;;;;;;14.73;98.74;92789.34;5030845;28;20037;-76
2022/09/04 00:20:44;;;;;;;8.52;6.18;;;;;;;14.68;98.70;92792.09;5031789;28;20025;-77
2022/09/04 00:23:17;;;;;;;14.70;6.47;;;;;;;14.66;98.90;92790.84;5030770;28;20037;-77
2022/09/04 00:26:19;;;;;;;9.82;6.07;;;;;;;14.64;98.42;92787.75;5032068;28;20029;-76
2022/09/04 00:28:57;;;;;;;9.97;5.97;;;;;;;14.62;98.61;92782.00;5031718;28;20033;-77
2022/09/04 00:31:37;;;;;;;10.13;6.32;;;;;;;14.61;98.54;92786.47;5047177;28;20038;-77
2022/09/04 00:34:35;;;;;;;9.43;6.63;;;;;;;14.58;98.47;92787.84;5030546;28;20112;-76
2022/09/04 00:37:05;;;;;;;9.82;6.75;;;;;;;14.59;98.61;92783.38;5031830;28;20045;-76
2022/09/04 00:40:01;;;;;;;9.57;6.45;;;;;;;14.56;98.91;92784.75;5032164;28;20029;-76
2022/09/04 00:43:00;;;;;;;8.45;6.10;;;;;;;14.54;98.74;92780.84;5012936;28;20507;-77
2022/09/04 00:45:49;;;;;;;11.80;7.00;;;;;;;14.51;98.68;92779.59;5012087;28;20464;-76
2022/09/04 00:48:36;;;;;;;10.52;6.70;;;;;;;14.47;98.92;92776.00;5012008;28;20044;-76
2022/09/04 00:51:10;;;;;;;11.63;7.20;;;;;;;14.45;99.14;92780.03;5004454;28;20045;-77
2022/09/04 00:53:53;;;;;;;8.63;6.55;;;;;;;14.42;99.27;92783.28;5047533;28;20086;-76
2022/09/04 00:56:35;;;;;;;13.82;7.13;;;;;;;14.36;99.69;92770.25;5031267;28;20052;-76
2022/09/04 00:59:26;;;;;;;12.23;6.90;;;;;;;14.34;99.71;92764.50;5028647;28;20499;-77
2022/09/04 01:02:00;;;;;;;11.00;6.38;;;;;;;14.31;99.52;92767.72;5031400;28;20029;-76
2022/09/04 01:04:42;;;;;;;12.57;7.90;;;;;;;14.29;100.00;92763.81;5029877;28;20033;-76
2022/09/04 01:07:22;;;;;;;13.38;8.73;;;;;;;14.28;100.00;92773.59;5030621;28;20537;-76
2022/09/04 01:10:20;;;;;;;12.65;8.77;;;;;;;14.26;100.00;92774.97;5031217;28;20037;-76
2022/09/04 01:12:56;;;;;;;13.77;8.73;;;;;;;14.24;100.00;92771.88;4990242;28;20426;-77
2022/09/04 01:15:36;;;;;;;11.95;8.43;;;;;;;14.22;100.00;92768.75;5030083;28;20140;-76
2022/09/04 01:18:13;;;;;;;13.30;8.57;;;;;;;14.20;100.00;92769.03;5027728;28;20033;-76
2022/09/04 01:21:05;;;;;;;12.90;7.80;;;;;;;14.18;100.00;92779.09;5030175;28;20038;-76
2022/09/04 01:23:55;;;;;;;11.15;7.50;;;;;;;14.14;100.00;92778.94;5030864;28;20036;-76
2022/09/04 01:27:06;;;;;;;10.05;8.32;;;;;;;14.18;100.00;92783.59;5030624;28;20507;-76
2022/09/04 01:29:48;;;;;;;10.80;7.45;;;;;;;14.24;100.00;92782.41;5020087;28;20104;-76
2022/09/04 01:32:39;;;;;;;12.35;8.68;;;;;;;14.20;100.00;92782.22;5030888;28;20061;-76
2022/09/04 01:35:33;;;;;;;11.27;8.63;;;;;;;14.19;100.00;92775.41;5032966;28;20044;-76
2022/09/04 01:38:10;;;;;;;14.55;9.00;;;;;;;14.14;100.00;92784.19;5029462;28;20091;-77
2022/09/04 01:40:52;;;;;;;18.23;9.02;;;;;;;14.11;100.00;92794.53;5029654;28;20039;-76
2022/09/04 01:43:20;;;;;;;15.50;9.38;;;;;;;14.08;100.00;92793.28;5030931;28;20458;-77
2022/09/04 01:46:06;;;;;;;11.68;8.43;;;;;;;14.05;100.00;92791.25;5030741;28;20037;-77
2022/09/04 01:48:58;;;;;;;14.32;9.00;;;;;;;14.03;100.00;92793.41;5030631;28;20494;-75
2022/09/04 01:51:48;;;;;;;16.13;10.60;;;;;;;14.04;100.00;92791.56;5031406;28;20273;-77
2022/09/04 01:55:05;;;;;;;14.00;9.90;;;;;;;14.05;100.00;92793.09;5029371;28;20045;-77
2022/09/04 01:57:34;;;;;;;13.82;10.15;;;;;;;14.04;100.00;92794.19;4988297;28;20027;-76
2022/09/04 02:00:28;;;;;;;13.25;10.25;;;;;;;13.99;100.00;92796.94;5027176;28;20115;-76
2022/09/04 02:02:59;;;;;;;14.15;10.15;;;;;;;13.97;100.00;92804.38;5029278;28;20131;-77
2022/09/04 02:05:43;;;;;;;13.65;9.18;;;;;;;13.97;100.00;92804.38;5033048;28;20041;-76
2022/09/04 02:08:40;;;;;;;13.65;9.82;;;;;;;14.00;100.00;92812.41;5034046;28;20040;-76
2022/09/04 02:11:16;;;;;;;13.13;8.77;;;;;;;13.99;100.00;92802.22;5032831;28;20077;-76
2022/09/04 02:14:13;;;;;;;18.88;9.32;;;;;;;13.98;100.00;92803.28;5034355;28;20030;-77
2022/09/04 02:17:03;;;;;;;12.73;8.50;;;;;;;14.00;100.00;92809.00;5049754;28;20522;-76
2022/09/04 02:19:42;;;;;;;11.02;8.43;;;;;;;14.01;100.00;92807.97;5033616;28;20025;-76
2022/09/04 02:22:16;;;;;;;12.25;8.65;;;;;;;14.02;100.00;92815.53;5034182;28;20479;-76
2022/09/04 02:24:50;;;;;;;13.68;8.75;;;;;;;14.00;100.00;92809.00;5033974;28;20119;-76
2022/09/04 02:27:41;;;;;;;10.52;8.15;;;;;;;13.99;100.00;92807.47;5033977;28;20526;-77
2022/09/04 02:30:10;;;;;;;12.48;8.60;;;;;;;13.98;100.00;92811.16;5033967;28;20044;-77
2022/09/04 02:32:41;;;;;;;11.82;8.50;;;;;;;13.94;100.00;92809.16;5032761;28;20498;-77
2022/09/04 02:35:15;;;;;;;11.23;8.25;;;;;;;13.89;100.00;92806.63;5034301;28;20480;-77
2022/09/04 02:37:59;;;;;;;11.43;8.45;;;;;;;13.85;100.00;92813.56;5032548;28;20034;-76
2022/09/04 02:40:37;;;;;;;11.45;8.10;;;;;;;13.81;100.00;92807.34;5033863;28;20044;-77
2022/09/04 02:43:34;;;;;;;10.32;8.40;;;;;;;13.79;100.00;92803.44;5015981;28;20041;-76
2022/09/04 02:46:21;;;;;;;12.95;8.63;;;;;;;13.78;100.00;92815.84;5033848;28;20055;-77
2022/09/04 02:49:01;;;;;;;11.15;7.78;;;;;;;13.74;100.00;92812.25;5032574;28;20065;-77
2022/09/04 02:51:48;;;;;;;11.00;8.02;;;;;;;13.70;100.00;92811.28;5013946;28;20126;-76
2022/09/04 02:54:20;;;;;;;10.07;8.10;;;;;;;13.68;100.00;92813.41;5034539;28;20033;-76
2022/09/04 02:57:23;;;;;;;13.85;8.38;;;;;;;13.67;100.00;92812.66;5033543;28;20113;-76
2022/09/04 03:00:06;;;;;;;11.32;8.50;;;;;;;13.68;100.00;92808.16;5033342;28;20108;-76
2022/09/04 03:02:54;;;;;;;10.32;7.63;;;;;;;13.66;100.00;92815.56;5033494;28;20041;-75
2022/09/04 03:05:28;;;;;;;11.73;8.52;;;;;;;13.66;100.00;92808.44;5033198;28;20025;-76
2022/09/04 03:08:12;;;;;;;12.70;8.88;;;;;;;13.66;100.00;92810.31;5033299;28;20075;-76
2022/09/04 03:10:47;;;;;;;10.75;8.00;;;;;;;13.64;100.00;92812.44;5048302;28;20151;-76
2022/09/04 03:13:29;;;;;;;12.52;9.15;;;;;;;13.61;100.00;92823.56;5033113;28;20033;-76
2022/09/04 03:16:01;;;;;;;12.30;8.77;;;;;;;13.62;100.00;92814.59;5032355;28;20498;-76
2022/09/04 03:18:55;;;;;;;15.55;8.93;;;;;;;13.61;100.00;92823.56;5032679;28;20079;-76
2022/09/04 03:21:38;;;;;;;13.73;8.45;;;;;;;13.57;100.00;92822.59;5032650;28;20038;-76
2022/09/04 03:24:16;;;;;;;12.35;8.20;;;;;;;13.54;100.00;92822.13;5031676;28;20037;-76
2022/09/04 03:26:49;;;;;;;11.52;7.88;;;;;;;13.53;100.00;92823.19;5032742;28;20060;-75
2022/09/04 03:29:36;;;;;;;13.35;8.27;;;;;;;13.52;100.00;92834.78;4995529;28;20045;-76
2022/09/04 03:32:17;;;;;;;12.88;8.20;;;;;;;13.52;100.00;92828.75;5013025;28;20407;-75
2022/09/04 03:35:06;;;;;;;10.63;8.07;;;;;;;13.50;100.00;92826.41;5013776;28;20049;-76
2022/09/04 03:37:49;;;;;;;12.07;7.68;;;;;;;13.48;100.00;92830.41;5032293;28;20034;-76
2022/09/04 03:40:35;;;;;;;10.75;7.78;;;;;;;13.48;100.00;92839.06;5031441;28;20044;-76
2022/09/04 03:43:21;;;;;;;11.82;8.20;;;;;;;13.46;100.00;92835.19;5032342;28;20095;-76
2022/09/04 03:45:47;;;;;;;12.70;8.05;;;;;;;13.46;100.00;92833.31;5032442;28;20317;-76
2022/09/04 03:48:24;;;;;;;10.57;8.13;;;;;;;13.45;100.00;92831.78;5032482;28;20531;-76
2022/09/04 03:51:03;;;;;;;10.40;8.23;;;;;;;13.48;100.00;92839.06;5032166;28;20124;-76
2022/09/04 03:53:39;;;;;;;12.63;8.10;;;;;;;13.50;100.00;92839.56;5032340;28;20033;-76
2022/09/04 03:56:22;;;;;;;10.80;7.78;;;;;;;13.56;100.00;92842.09;5030985;28;20033;-75
2022/09/04 03:58:54;;;;;;;10.43;7.35;;;;;;;13.61;100.00;92834.09;5038275;28;20037;-75
2022/09/04 04:01:58;;;;;;;14.05;7.55;;;;;;;13.66;100.00;92836.59;5014527;28;20034;-76
2022/09/04 04:04:42;;;;;;;11.15;7.35;;;;;;;13.69;100.00;92836.00;4998413;28;20049;-76
2022/09/04 04:07:23;;;;;;;12.13;8.93;;;;;;;13.73;100.00;92837.78;5030024;28;20547;-76
2022/09/04 04:09:52;;;;;;;11.95;7.80;;;;;;;13.77;100.00;92837.94;5014456;28;20052;-76
2022/09/04 04:12:43;;;;;;;9.20;7.75;;;;;;;13.82;100.00;92845.72;5029972;28;20376;-76
2022/09/04 04:15:51;;;;;;;9.98;7.57;;;;;;;13.84;100.00;92843.56;5026693;28;20079;-76
2022/09/04 04:18:33;;;;;;;10.95;8.10;;;;;;;13.85;100.00;92845.13;5031801;28;20049;-76
2022/09/04 04:21:12;;;;;;;9.93;7.95;;;;;;;13.87;100.00;92847.44;5031984;28;20041;-76
2022/09/04 04:23:56;;;;;;;12.27;7.90;;;;;;;13.88;100.00;92849.03;5012959;28;20041;-76
2022/09/04 04:26:46;;;;;;;10.43;7.80;;;;;;;13.91;100.00;92858.94;5027278;28;20030;-76
2022/09/04 04:29:27;;;;;;;10.48;7.50;;;;;;;13.92;100.00;92848.13;5032688;28;20037;-76
2022/09/04 04:32:14;;;;;;;10.63;7.53;;;;;;;13.93;100.00;92849.69;5030444;28;20079;-77
2022/09/04 04:34:45;;;;;;;9.95;7.63;;;;;;;13.95;100.00;92852.78;5031875;28;20388;-77
2022/09/04 04:37:26;;;;;;;12.27;7.75;;;;;;;13.97;100.00;92851.72;5030533;28;20041;-77
2022/09/04 04:40:02;;;;;;;10.70;8.20;;;;;;;13.98;100.00;92853.28;5010768;28;20042;-76
2022/09/04 04:42:44;;;;;;;9.40;7.18;;;;;;;14.00;100.00;92859.03;5040945;28;20056;-76
2022/09/04 04:48:55;;;;;;;10.50;7.53;;;;;;;14.01;100.00;92857.97;5031632;28;20429;-77
2022/09/04 04:51:40;;;;;;;11.48;7.10;;;;;;;14.02;100.00;92859.50;4989982;28;20550;-76
2022/09/04 04:54:32;;;;;;;9.30;7.07;;;;;;;14.03;100.00;92861.84;5031192;28;20037;-77
2022/09/04 04:57:25;;;;;;;11.75;7.53;;;;;;;14.05;100.00;92857.06;5009231;28;20140;-76
2022/09/04 05:00:07;;;;;;;12.40;7.75;;;;;;;14.09;100.00;92858.00;5002543;28;20082;-77
2022/09/04 05:02:59;;;;;;;10.18;7.80;;;;;;;14.12;100.00;92861.91;5031136;28;20041;-77
2022/09/04 05:05:54;;;;;;;16.67;7.83;;;;;;;14.14;100.00;92857.91;5030249;28;20037;-77
2022/09/04 05:08:33;;;;;;;11.02;7.15;;;;;;;14.17;100.00;92867.06;5031182;28;20326;-77
2022/09/04 05:11:09;;;;;;;9.50;6.95;;;;;;;14.19;100.00;92864.91;5046630;28;20053;-77
2022/09/04 05:13:34;;;;;;;9.70;7.32;;;;;;;14.24;100.00;92871.91;5031255;28;20041;-77
2022/09/04 05:16:24;;;;;;;11.23;7.15;;;;;;;14.25;100.00;92869.00;5031606;28;20068;-77
2022/09/04 05:19:05;;;;;;;11.48;6.80;;;;;;;14.31;100.00;92873.03;5031538;28;20399;-77
2022/09/04 05:21:54;;;;;;;11.13;6.68;;;;;;;14.37;100.00;92878.97;5031409;28;20043;-77
2022/09/04 05:24:36;;;;;;;6.97;5.95;;;;;;;14.42;100.00;92883.34;5031738;28;20044;-77
2022/09/04 05:27:20;;;;;;;9.07;6.00;;;;;;;14.48;100.00;92882.16;5046829;28;20176;-76
2022/09/04 05:29:59;;;;;;;7.40;5.70;;;;;;;14.58;100.00;92881.94;5031369;28;20530;-77
2022/09/04 05:32:49;;;;;;;10.98;6.38;;;;;;;14.65;100.00;92877.00;5031352;28;20502;-77
2022/09/04 05:35:56;;;;;;;9.25;5.88;;;;;;;14.78;100.00;92880.66;5030249;28;20531;-76
2022/09/04 05:38:43;;;;;;;7.47;5.82;;;;;;;14.90;100.00;92877.44;5012133;28;20045;-77
2022/09/04 05:41:20;;;;;;;9.02;6.20;;;;;;;15.02;100.00;92882.16;5035364;28;20025;-76
2022/09/04 05:43:52;;;;;;;7.63;5.65;;;;;;;15.12;100.00;92885.31;5035241;28;20061;-77
2022/09/04 05:46:33;;;;;;;9.93;5.90;;;;;;;15.24;99.93;92887.38;5034911;28;20029;-77
2022/09/04 05:49:06;;;;;;;8.00;6.18;;;;;;;15.38;99.52;92892.56;5033478;28;20132;-77
2022/09/04 05:52:01;;;;;;;9.32;5.93;;;;;;;15.50;98.77;92890.09;5036289;28;20449;-78
2022/09/04 05:54:27;;;;;;;13.35;8.02;;;;;;;15.65;97.74;92901.31;5054095;28;20115;-77
2022/09/04 05:56:55;;;;;;;15.98;9.20;;;;;;;15.79;97.05;92902.78;5034011;28;20033;-78
2022/09/04 05:59:33;;;;;;;12.77;9.48;;;;;;;15.94;96.40;92904.19;5034700;28;20044;-77
2022/09/04 06:02:03;;;;;;;12.73;8.00;;;;;;;16.08;95.30;92913.84;5036770;28;20037;-77
2022/09/04 06:04:43;;;;;;;9.38;7.78;;;;;;;16.23;94.96;92911.53;5038253;28;20543;-77
2022/09/04 06:07:41;;;;;;;8.07;5.65;;;;;;;16.71;93.02;92904.50;5035476;28;20037;-78
2022/09/04 06:10:15;;;;;;;8.15;5.80;;;;;;;17.57;88.70;92901.94;5042854;28;20111;-78
2022/09/04 06:13:05;;;;;;;7.93;5.18;;;;;;;18.44;83.93;92904.81;5037894;28;20124;-77
2022/09/04 06:15:43;;;;;;;7.05;5.10;;;;;;;19.17;80.31;92905.41;5033640;28;20116;-77
2022/09/04 06:18:25;;;;;;;6.95;5.05;;;;;;;19.78;77.66;92907.38;5040328;28;20099;-78
2022/09/04 06:21:10;;;;;;;8.93;4.70;;;;;;;20.24;74.83;92908.75;5037691;28;20044;-78
2022/09/04 06:23:59;;;;;;;8.25;4.35;;;;;;;20.67;74.36;92917.97;5041490;28;20021;-79
2022/09/04 06:26:56;;;;;;;5.72;4.13;;;;;;;20.40;74.08;92924.78;5000135;28;20049;-78
2022/09/04 06:29:58;;;;;;;8.80;4.50;;;;;;;20.49;72.94;92924.63;5032745;28;20037;-77
2022/09/04 06:33:05;;;;;;;7.20;4.75;;;;;;;20.33;73.63;92927.22;5048892;28;20033;-77
2022/09/04 06:35:46;;;;;;;7.60;4.20;;;;;;;20.20;74.64;92933.66;5025363;28;20036;-77
2022/09/04 06:38:40;;;;;;;7.57;4.80;;;;;;;20.90;73.60;92928.06;5034706;28;20533;-77
2022/09/04 06:41:34;;;;;;;7.15;4.53;;;;;;;21.72;68.35;92924.81;5040030;28;20033;-77
2022/09/04 06:44:15;;;;;;;7.55;4.78;;;;;;;22.45;65.14;92922.66;5034885;28;20067;-77
2022/09/04 06:46:49;;;;;;;7.30;4.40;;;;;;;23.33;64.97;92924.75;5041393;28;20029;-77
2022/09/04 06:49:36;;;;;;;7.53;4.25;;;;;;;24.18;59.52;92916.56;5044582;28;20037;-76
2022/09/04 06:52:23;;;;;;;8.63;4.10;;;;;;;24.27;59.03;92927.00;5025769;28;20036;-77
2022/09/04 06:55:04;;;;;;;5.60;3.95;;;;;;;23.57;59.98;92925.53;5032517;28;20468;-77
2022/09/04 06:57:44;;;;;;;6.22;4.43;;;;;;;23.06;62.51;92930.00;5037715;28;20421;-78
2022/09/04 07:00:11;;;;;;;9.93;4.20;;;;;;;22.88;64.72;92923.53;5061094;28;20090;-77
2022/09/04 07:02:37;;;;;;;8.32;4.18;;;;;;;22.28;66.53;92923.06;5040187;28;20080;-77
2022/09/04 07:05:24;;;;;;;6.95;4.00;;;;;;;21.55;68.37;92935.84;5041382;28;20045;-77
2022/09/04 07:08:38;;;;;;;7.80;4.40;;;;;;;20.86;70.79;92933.28;5042416;28;20025;-76
2022/09/04 07:11:15;;;;;;;7.80;4.13;;;;;;;20.75;73.84;92937.56;4964402;28;20097;-79
2022/09/04 07:14:03;;;;;;;7.50;4.35;;;;;;;20.59;72.71;92930.28;5044210;28;20041;-80
2022/09/04 07:16:40;;;;;;;10.60;4.80;;;;;;;20.27;75.63;92936.56;5050082;28;20115;-80
2022/09/04 07:19:34;;;;;;;6.38;4.47;;;;;;;20.09;76.96;92936.78;5034349;28;20112;-79
2022/09/04 07:22:42;;;;;;;7.60;5.07;;;;;;;19.68;79.38;92938.56;5035395;28;20097;-80
2022/09/04 07:25:28;;;;;;;10.63;5.40;;;;;;;19.81;77.30;92949.19;5046632;28;20034;-79
2022/09/04 07:28:16;;;;;;;6.90;4.88;;;;;;;19.93;77.23;92949.22;5038397;28;20025;-79
2022/09/04 07:30:57;;;;;;;6.32;4.82;;;;;;;19.79;77.85;92962.81;5048279;28;20041;-80
2022/09/04 07:33:35;;;;;;;8.57;4.90;;;;;;;19.94;76.29;92958.72;5034051;28;20578;-78
2022/09/04 07:36:01;;;;;;;6.72;4.97;;;;;;;19.69;77.77;92958.72;5034009;28;20061;-78
2022/09/04 07:38:35;;;;;;;8.10;5.95;;;;;;;19.79;78.74;92962.03;5034678;28;20065;-78
2022/09/04 07:41:09;;;;;;;10.38;5.25;;;;;;;19.93;76.74;92960.59;5047758;28;20033;-77
2022/09/04 07:44:08;;;;;;;9.02;5.00;;;;;;;20.22;77.07;92961.47;5049144;28;20042;-77
2022/09/04 07:46:33;;;;;;;7.63;4.90;;;;;;;20.35;76.72;92971.00;5025831;28;20049;-77
2022/09/04 07:49:11;;;;;;;7.20;4.97;;;;;;;20.28;76.50;92972.66;5033250;28;20092;-78
2022/09/04 07:51:52;;;;;;;7.35;4.70;;;;;;;20.01;76.92;92974.88;5042355;28;20466;-78
2022/09/04 07:54:44;;;;;;;9.85;5.20;;;;;;;20.11;78.90;92977.09;5028381;28;20506;-77
2022/09/04 07:57:20;;;;;;;8.27;5.20;;;;;;;20.63;77.20;92982.81;5004041;28;20041;-77
2022/09/04 07:59:51;;;;;;;7.25;4.78;;;;;;;20.64;74.47;92979.81;5036804;28;20029;-79
2022/09/04 08:02:32;;;;;;;7.40;5.37;;;;;;;20.66;74.34;92987.44;5019443;28;20041;-80
2022/09/04 08:05:23;;;;;;;6.25;4.50;;;;;;;20.70;75.73;92983.00;5031831;28;20319;-79
2022/09/04 08:07:52;;;;;;;10.05;5.50;;;;;;;20.35;76.39;92988.81;5035084;28;20052;-80
2022/09/04 08:10:41;;;;;;;7.25;4.70;;;;;;;20.33;78.04;92991.03;5033744;28;20032;-79
2022/09/04 08:13:25;;;;;;;8.65;5.18;;;;;;;20.36;77.51;92990.38;5032788;28;20133;-79
2022/09/04 08:16:16;;;;;;;10.70;5.82;;;;;;;20.23;79.03;92989.59;5033101;28;20113;-79
2022/09/04 08:19:09;;;;;;;8.18;6.25;;;;;;;20.14;79.38;92992.38;5036365;28;20060;-79
2022/09/04 08:21:39;;;;;;;7.85;5.82;;;;;;;20.26;80.15;93001.44;5052072;28;20033;-79
2022/09/04 08:24:26;;;;;;;8.68;6.03;;;;;;;20.30;80.05;93002.31;5052323;28;20510;-79
2022/09/04 08:27:01;;;;;;;8.05;5.28;;;;;;;20.33;77.93;92999.00;5035828;28;20033;-79
2022/09/04 08:29:27;;;;;;;7.97;5.88;;;;;;;20.65;76.38;93004.50;5017166;28;20057;-78
2022/09/04 08:31:54;;;;;;;8.45;5.70;;;;;;;20.31;78.69;93004.66;5037092;28;20612;-78
2022/09/04 08:34:34;;;;;;;9.80;5.32;;;;;;;20.48;78.21;93016.16;5037021;28;20111;-79
2022/09/04 08:37:17;;;;;;;7.20;5.60;;;;;;;20.43;77.92;93016.41;5036721;28;20034;-79
2022/09/04 08:40:17;;;;;;;10.23;5.78;;;;;;;20.58;78.70;93024.47;5034994;28;20037;-79
2022/09/04 08:42:43;;;;;;;8.95;5.22;;;;;;;20.53;79.14;93029.22;5037535;28;20120;-79
2022/09/04 08:45:36;;;;;;;9.52;5.35;;;;;;;20.48;80.52;93029.44;5037003;28;20053;-78
2022/09/04 08:48:17;;;;;;;6.82;5.18;;;;;;;20.53;78.71;93032.66;5052958;28;20048;-78
2022/09/04 08:51:13;;;;;;;6.75;5.65;;;;;;;20.66;77.60;93030.78;5052502;28;20056;-79
2022/09/04 08:53:39;;;;;;;8.27;5.20;;;;;;;20.70;78.86;93026.34;5051305;28;20076;-79
2022/09/04 08:56:20;;;;;;;10.55;5.22;;;;;;;20.70;78.04;93038.88;5036448;28;20041;-80
2022/09/04 08:59:27;;;;;;;9.27;5.72;;;;;;;20.88;76.34;93034.84;5028673;28;20030;-79
2022/09/04 09:02:34;;;;;;;7.68;5.45;;;;;;;20.79;77.61;93034.97;5036343;28;20045;-80
2022/09/04 09:05:37;;;;;;;6.90;5.03;;;;;;;20.95;75.28;93045.69;5035647;28;20095;-80
2022/09/04 09:08:22;;;;;;;7.00;5.35;;;;;;;20.90;74.89;93045.91;5045783;28;20045;-78
2022/09/04 09:11:06;;;;;;;11.15;5.65;;;;;;;20.69;75.02;93040.75;5033632;28;20056;-79
2022/09/04 09:13:56;;;;;;;7.20;5.50;;;;;;;20.75;75.26;93043.97;5030708;28;20136;-79
2022/09/04 09:16:53;;;;;;;8.05;5.00;;;;;;;20.84;75.98;93046.50;5025704;28;20083;-78
2022/09/04 09:19:45;;;;;;;6.97;5.60;;;;;;;20.58;73.39;93056.41;5023961;28;20060;-77
2022/09/04 09:22:35;;;;;;;9.10;4.95;;;;;;;20.76;71.96;93056.94;5032050;28;20488;-79
2022/09/04 09:25:19;;;;;;;6.90;4.70;;;;;;;20.69;70.30;93061.25;5050276;28;20454;-82
2022/09/04 09:28:27;;;;;;;9.18;5.50;;;;;;;20.87;69.67;93059.09;5048268;28;20033;-81
2022/09/04 09:31:11;;;;;;;10.23;5.43;;;;;;;20.90;69.25;93056.56;5003909;28;20053;-80
2022/09/04 09:33:39;;;;;;;8.48;5.72;;;;;;;21.11;69.06;93059.06;5030406;28;20514;-80
2022/09/04 09:36:33;;;;;;;7.38;5.35;;;;;;;21.23;70.72;93054.78;5015726;28;20383;-80
2022/09/04 09:39:06;;;;;;;10.13;5.57;;;;;;;21.13;68.16;93054.16;5035872;28;20076;-80
2022/09/04 09:41:58;;;;;;;7.85;5.60;;;;;;;21.05;67.75;93057.72;5050624;28;20048;-80
2022/09/04 09:44:45;;;;;;;13.10;6.00;;;;;;;21.19;66.97;93057.38;5053155;28;20108;-79
2022/09/04 09:47:17;;;;;;;13.70;7.97;;;;;;;21.37;65.67;93055.19;5049776;28;20369;-79
2022/09/04 09:49:48;;;;;;;7.57;5.85;;;;;;;21.27;65.53;93059.09;5045504;28;20089;-79
2022/09/04 09:52:17;;;;;;;7.55;5.80;;;;;;;21.39;66.34;93059.06;5039795;28;20072;-82
2022/09/04 09:55:01;;;;;;;7.45;5.63;;;;;;;21.59;67.36;93053.88;5035195;28;20040;-80
2022/09/04 09:57:58;;;;;;;10.85;5.72;;;;;;;21.48;67.19;93064.28;5033836;28;20034;-81
2022/09/04 10:00:28;;;;;;;8.80;5.80;;;;;;;21.71;67.57;93063.72;5039089;28;20047;-82
2022/09/04 10:03:32;;;;;;;9.20;5.82;;;;;;;21.70;66.40;93065.59;4998677;28;20041;-80
2022/09/04 10:06:06;;;;;;;12.98;6.68;;;;;;;21.55;66.56;93067.13;5028419;28;20030;-82
2022/09/04 10:09:01;;;;;;;10.65;6.78;;;;;;;21.44;65.90;93054.66;5033491;28;20038;-80
2022/09/04 10:11:30;;;;;;;8.93;6.45;;;;;;;21.76;66.84;93055.47;4991458;28;20554;-80
2022/09/04 10:14:14;;;;;;;13.57;7.10;;;;;;;21.75;65.97;93057.38;5031223;28;20627;-78
2022/09/04 10:17:08;;;;;;;10.32;7.10;;;;;;;22.09;65.56;93051.69;5037471;28;20102;-79
2022/09/04 10:19:57;;;;;;;8.20;6.30;;;;;;;22.30;64.83;93051.50;5030483;28;20384;-79
2022/09/04 10:22:45;;;;;;;12.45;6.32;;;;;;;22.30;64.37;93051.50;5034203;28;20460;-80
2022/09/04 10:25:48;;;;;;;12.07;8.02;;;;;;;22.43;64.58;93058.28;5062395;28;20064;-79
2022/09/04 10:29:10;;;;;;;10.65;6.70;;;;;;;22.34;64.88;93049.69;5020958;28;20063;-79
2022/09/04 10:31:53;;;;;;;12.68;6.97;;;;;;;22.43;64.18;93052.94;5012569;28;20038;-80
2022/09/04 10:34:33;;;;;;;8.52;6.75;;;;;;;22.64;64.83;93048.06;5035795;28;20099;-80
2022/09/04 10:37:35;;;;;;;12.10;6.55;;;;;;;22.73;63.88;93049.78;5043901;28;20029;-82
2022/09/04 10:43:09;;;;;;;9.77;6.95;;;;;;;22.50;65.60;93047.75;5034907;28;20314;-80
2022/09/04 10:45:44;;;;;;;12.65;8.68;;;;;;;22.69;63.86;93048.94;5039055;28;20021;-82
2022/09/04 10:48:35;;;;;;;15.15;10.63;;;;;;;22.33;63.15;93040.13;5027155;28;20030;-81
2022/09/04 10:51:48;;;;;;;13.30;9.15;;;;;;;22.54;62.23;93032.63;5036580;28;20492;-81
2022/09/04 10:54:43;;;;;;;12.00;8.27;;;;;;;22.72;64.86;93033.00;5036031;28;20060;-84
2022/09/04 10:57:46;;;;;;;13.88;8.70;;;;;;;22.81;63.23;93030.16;5033488;28;20048;-82
2022/09/04 11:00:19;;;;;;;10.40;8.05;;;;;;;23.06;63.48;93030.69;5036669;28;20032;-82
2022/09/04 11:03:02;;;;;;;13.18;9.00;;;;;;;23.17;62.79;93026.31;5033053;28;20052;-81
2022/09/04 11:05:43;;;;;;;16.10;8.75;;;;;;;23.46;58.87;93030.31;5034578;28;20451;-82
2022/09/04 11:08:35;;;;;;;10.18;8.68;;;;;;;23.28;60.28;93021.97;5043849;28;20077;-80
2022/09/04 11:11:28;;;;;;;9.55;7.55;;;;;;;23.11;63.93;93011.72;5033437;28;20167;-80
2022/09/04 11:14:15;;;;;;;13.63;9.48;;;;;;;22.85;61.68;93017.63;5047742;28;20105;-82
2022/09/04 11:17:08;;;;;;;11.55;8.73;;;;;;;22.94;64.19;93023.53;5052860;28;20136;-81
2022/09/04 11:19:53;;;;;;;12.05;8.02;;;;;;;22.41;65.77;93023.94;5034337;28;20034;-83
2022/09/04 11:22:56;;;;;;;11.05;7.90;;;;;;;22.22;67.18;93022.00;5040569;28;20038;-82
2022/09/04 11:25:43;;;;;;;12.00;7.32;;;;;;;22.37;66.05;93024.97;5029855;28;20034;-81
2022/09/04 11:28:46;;;;;;;10.57;6.45;;;;;;;22.29;68.38;93026.72;5036430;28;20101;-81
2022/09/04 11:31:34;;;;;;;;;;;;;;;22.48;65.04;93023.31;5037114;28;20507;-82
2022/09/04 11:34:00;;;;;;;13.07;7.65;;;;;;;23.10;63.81;93023.50;5037065;28;19924;-82
2022/09/04 11:36:53;;;;;;;12.38;7.45;;;;;;;22.70;63.06;93021.91;5033456;28;20083;-82
2022/09/04 11:39:43;;;;;;;9.07;7.18;;;;;;;22.59;66.06;93027.00;5032961;28;20405;-82
2022/09/04 11:42:40;;;;;;;10.77;7.20;;;;;;;22.94;64.53;93023.53;5031785;28;20427;-82
2022/09/04 11:45:20;;;;;;;12.40;7.00;;;;;;;23.30;63.29;93026.94;5033600;28;20037;-82
2022/09/04 11:47:55;;;;;;;10.68;6.32;;;;;;;23.54;62.74;93017.09;5034748;28;20047;-80
2022/09/04 11:51:05;;;;;;;12.18;6.05;;;;;;;23.86;59.65;93020.34;5054115;28;20068;-82
2022/09/04 11:54:10;;;;;;;9.05;7.30;;;;;;;23.88;59.53;93026.88;4971838;28;20168;-79
2022/09/04 11:57:30;;;;;;;10.45;7.00;;;;;;;24.28;60.77;93020.25;5014592;28;20052;-81
2022/09/04 12:00:06;;;;;;;8.10;6.50;;;;;;;23.94;59.26;93030.03;4959482;29;20046;-82
2022/09/04 12:02:57;;;;;;;12.95;7.57;;;;;;;23.53;59.43;93028.88;5007748;28;20503;-80
2022/09/04 12:05:42;;;;;;;15.13;6.40;;;;;;;23.92;60.83;93028.84;5037793;28;20508;-79
2022/09/04 12:08:34;;;;;;;10.00;6.03;;;;;;;24.18;59.25;93036.13;5033932;28;20030;-79
2022/09/04 12:11:35;;;;;;;11.60;6.60;;;;;;;23.66;58.14;93046.31;5041910;28;20050;-80
2022/09/04 12:14:21;;;;;;;9.40;6.07;;;;;;;23.43;60.45;93039.03;4988509;28;20038;-79
2022/09/04 12:17:32;;;;;;;11.35;6.78;;;;;;;23.16;60.35;93046.13;5037434;28;20029;-77
2022/09/04 12:20:05;;;;;;;9.70;6.15;;;;;;;23.38;61.78;93036.63;4964735;28;20031;-79
2022/09/04 12:23:09;;;;;;;8.18;6.00;;;;;;;23.09;61.61;93043.31;5007792;28;20089;-79
2022/09/04 12:26:00;;;;;;;9.88;6.60;;;;;;;23.02;62.22;93037.84;5030559;28;20025;-79
2022/09/04 12:28:45;;;;;;;9.40;6.85;;;;;;;23.56;60.50;93041.56;5030793;28;20246;-80
2022/09/04 12:31:50;;;;;;;8.23;6.35;;;;;;;24.13;59.44;93044.47;5037466;28;20041;-80
2022/09/04 12:34:36;;;;;;;9.43;6.78;;;;;;;24.23;58.23;93044.66;5029446;28;20034;-80
2022/09/04 12:37:42;;;;;;;12.18;7.18;;;;;;;23.55;59.28;93046.09;5024864;28;20069;-80
2022/09/04 12:40:28;;;;;;;10.63;6.35;;;;;;;24.20;60.27;93031.97;5037628;28;20025;-79
2022/09/04 12:43:15;;;;;;;11.43;8.10;;;;;;;24.52;56.25;93040.53;5037232;28;20033;-79
2022/09/04 12:45:59;;;;;;;12.63;7.68;;;;;;;24.51;55.43;93048.91;5052877;28;20108;-78
2022/09/04 12:48:59;;;;;;;11.73;7.22;;;;;;;24.13;58.03;93037.22;5047261;28;20505;-79
2022/09/04 12:51:35;;;;;;;15.93;8.00;;;;;;;24.33;57.88;93034.47;5037890;28;20030;-80
2022/09/04 12:54:36;;;;;;;10.93;6.82;;;;;;;24.29;58.13;93027.16;5020884;28;20438;-79
2022/09/04 12:57:26;;;;;;;9.48;6.78;;;;;;;24.07;58.04;93033.28;5028272;28;20041;-79